Cozumel, ROO, Mexico
Current Conditions -  °F | °C
As of 10:44 AM on Saturday 20 Dec 2014 (Local Time) from MMCZ Reporting Station
Broken Clouds Broken Clouds  
Wind Chill: 79°   Ceiling: 1500
Heat Index: 82°   Visibility: 8mi
Dew Point: 75°   Wind: 7mph
Humidity: 89%   Direction: 140°SE
Pressure: 29.99"   Gusts: NA
Location:  20.43°N, 86.88°W
Report Text: MMCZ 201644Z 14006KT 8SM BKN015TCU BKN070 26/24 A2999 RMK 8/230 SC RTS
Loading
Personal Weather Stations






























Interactive Weather Map New forecast layout! Learn more

10-Day Weather Forecast

Advertisements
Track Severe Weather on mobile